sensor_id;sensor_type;location;lat;lon;timestamp;pressure;altitude;pressure_sealevel;temperature;humidity
38880;BME280;25887;30.194;-97.880;2023-03-19T00:00:08;99639.25;;;14.03;32.87
38880;BME280;25887;30.194;-97.880;2023-03-19T00:02:48;99639.25;;;14.04;32.66
38880;BME280;25887;30.194;-97.880;2023-03-19T00:05:54;99639.25;;;14.04;32.66
38880;BME280;25887;30.194;-97.880;2023-03-19T00:08:20;99638.34;;;14.01;32.94
38880;BME280;25887;30.194;-97.880;2023-03-19T00:10:47;99632.31;;;13.99;32.82
38880;BME280;25887;30.194;-97.880;2023-03-19T00:13:14;99635.75;;;13.96;33.15
38880;BME280;25887;30.194;-97.880;2023-03-19T00:15:40;99641.78;;;13.97;32.93
38880;BME280;25887;30.194;-97.880;2023-03-19T00:18:06;99636.59;;;13.93;33.42
38880;BME280;25887;30.194;-97.880;2023-03-19T00:20:33;99648.66;;;13.94;33.23
38880;BME280;25887;30.194;-97.880;2023-03-19T00:23:00;99645.19;;;13.92;33.43
38880;BME280;25887;30.194;-97.880;2023-03-19T00:25:26;99644.31;;;13.90;33.24
38880;BME280;25887;30.194;-97.880;2023-03-19T00:27:52;99662.41;;;13.90;33.15
38880;BME280;25887;30.194;-97.880;2023-03-19T00:30:20;99665.84;;;13.86;33.47
38880;BME280;25887;30.194;-97.880;2023-03-19T00:32:47;99667.53;;;13.84;33.42
38880;BME280;25887;30.194;-97.880;2023-03-19T00:35:13;99667.50;;;13.81;33.49
38880;BME280;25887;30.194;-97.880;2023-03-19T00:37:40;99675.25;;;13.80;33.30
38880;BME280;25887;30.194;-97.880;2023-03-19T00:40:07;99670.91;;;13.77;33.60
38880;BME280;25887;30.194;-97.880;2023-03-19T00:42:34;99679.50;;;13.73;33.39
38880;BME280;25887;30.194;-97.880;2023-03-19T00:45:02;99681.22;;;13.71;33.29
38880;BME280;25887;30.194;-97.880;2023-03-19T00:47:28;99684.66;;;13.70;33.63
38880;BME280;25887;30.194;-97.880;2023-03-19T00:49:54;99690.63;;;13.68;33.74
38880;BME280;25887;30.194;-97.880;2023-03-19T00:52:20;99684.59;;;13.64;33.71
38880;BME280;25887;30.194;-97.880;2023-03-19T00:54:48;99677.69;;;13.63;33.99
38880;BME280;25887;30.194;-97.880;2023-03-19T00:57:14;99686.31;;;13.62;34.04
38880;BME280;25887;30.194;-97.880;2023-03-19T00:59:40;99694.88;;;13.58;33.65
38880;BME280;25887;30.194;-97.880;2023-03-19T01:02:07;99708.63;;;13.57;33.62
38880;BME280;25887;30.194;-97.880;2023-03-19T01:04:33;99706.84;;;13.53;34.07
38880;BME280;25887;30.194;-97.880;2023-03-19T01:06:59;99707.69;;;13.50;34.01
38880;BME280;25887;30.194;-97.880;2023-03-19T01:09:26;99715.44;;;13.49;34.45
38880;BME280;25887;30.194;-97.880;2023-03-19T01:11:52;99722.31;;;13.47;34.16
38880;BME280;25887;30.194;-97.880;2023-03-19T01:14:18;99720.56;;;13.46;34.16
38880;BME280;25887;30.194;-97.880;2023-03-19T01:16:45;99720.53;;;13.43;34.36
38880;BME280;25887;30.194;-97.880;2023-03-19T01:19:11;99730.84;;;13.41;34.07
38880;BME280;25887;30.194;-97.880;2023-03-19T01:21:37;99728.22;;;13.38;34.21
38880;BME280;25887;30.194;-97.880;2023-03-19T01:24:03;99731.66;;;13.37;34.47
38880;BME280;25887;30.194;-97.880;2023-03-19T01:26:30;99743.69;;;13.35;34.78
38880;BME280;25887;30.194;-97.880;2023-03-19T01:28:57;99754.88;;;13.34;34.21
38880;BME280;25887;30.194;-97.880;2023-03-19T01:31:23;99754.84;;;13.31;34.67
38880;BME280;25887;30.194;-97.880;2023-03-19T01:33:49;99755.66;;;13.28;34.79
38880;BME280;25887;30.194;-97.880;2023-03-19T01:36:17;99755.66;;;13.27;34.93
38880;BME280;25887;30.194;-97.880;2023-03-19T01:38:44;99754.72;;;13.22;34.52
38880;BME280;25887;30.194;-97.880;2023-03-19T01:41:10;99758.16;;;13.21;34.79
38880;BME280;25887;30.194;-97.880;2023-03-19T01:43:36;99750.34;;;13.18;34.80
38880;BME280;25887;30.194;-97.880;2023-03-19T01:46:31;99759.88;;;13.20;34.84
38880;BME280;25887;30.194;-97.880;2023-03-19T01:49:01;99770.06;;;13.14;34.88
38880;BME280;25887;30.194;-97.880;2023-03-19T01:51:31;99768.34;;;13.11;35.10
38880;BME280;25887;30.194;-97.880;2023-03-19T01:54:03;99765.75;;;13.10;35.25
38880;BME280;25887;30.194;-97.880;2023-03-19T01:56:36;99768.31;;;13.10;35.44
38880;BME280;25887;30.194;-97.880;2023-03-19T01:59:10;99779.50;;;13.09;35.07
38880;BME280;25887;30.194;-97.880;2023-03-19T02:01:44;99782.94;;;13.08;35.11
38880;BME280;25887;30.194;-97.880;2023-03-19T02:04:13;99784.59;;;13.06;35.06
38880;BME280;25887;30.194;-97.880;2023-03-19T02:06:40;99784.56;;;13.03;35.49
38880;BME280;25887;30.194;-97.880;2023-03-19T02:09:08;99792.31;;;13.03;35.74
38880;BME280;25887;30.194;-97.880;2023-03-19T02:12:01;99799.19;;;13.04;35.66
38880;BME280;25887;30.194;-97.880;2023-03-19T02:14:30;99799.13;;;12.98;35.61
38880;BME280;25887;30.194;-97.880;2023-03-19T02:16:56;99799.94;;;12.94;35.79
38880;BME280;25887;30.194;-97.880;2023-03-19T02:19:51;99804.25;;;12.96;35.71
38880;BME280;25887;30.194;-97.880;2023-03-19T02:22:25;99809.31;;;12.89;35.73
38880;BME280;25887;30.194;-97.880;2023-03-19T02:25:01;99823.91;;;12.87;35.62
38880;BME280;25887;30.194;-97.880;2023-03-19T02:27:27;99831.56;;;12.82;36.14
38880;BME280;25887;30.194;-97.880;2023-03-19T02:29:53;99845.31;;;12.81;35.57
38880;BME280;25887;30.194;-97.880;2023-03-19T02:32:20;99846.16;;;12.78;35.89
38880;BME280;25887;30.194;-97.880;2023-03-19T02:34:46;99838.41;;;12.77;36.07
38880;BME280;25887;30.194;-97.880;2023-03-19T02:37:20;99839.19;;;12.74;36.10
38880;BME280;25887;30.194;-97.880;2023-03-19T02:40:11;99841.75;;;12.71;36.44
38880;BME280;25887;30.194;-97.880;2023-03-19T02:42:38;99840.81;;;12.68;36.76
38880;BME280;25887;30.194;-97.880;2023-03-19T02:45:06;99833.03;;;12.63;36.27
38880;BME280;25887;30.194;-97.880;2023-03-19T02:47:33;99835.59;;;12.62;36.49
38880;BME280;25887;30.194;-97.880;2023-03-19T02:49:59;99845.03;;;12.61;36.52
38880;BME280;25887;30.194;-97.880;2023-03-19T02:52:26;99859.59;;;12.59;36.55
38880;BME280;25887;30.194;-97.880;2023-03-19T02:54:52;99864.78;;;12.61;36.17
38880;BME280;25887;30.194;-97.880;2023-03-19T02:57:18;99858.72;;;12.57;36.64
38880;BME280;25887;30.194;-97.880;2023-03-19T02:59:45;99863.84;;;12.55;36.60
38880;BME280;25887;30.194;-97.880;2023-03-19T03:02:32;99863.00;;;12.58;36.39
38880;BME280;25887;30.194;-97.880;2023-03-19T03:04:58;99856.88;;;12.50;36.77
38880;BME280;25887;30.194;-97.880;2023-03-19T03:07:25;99853.41;;;12.48;36.46
38880;BME280;25887;30.194;-97.880;2023-03-19T03:09:53;99855.03;;;12.43;36.79
38880;BME280;25887;30.194;-97.880;2023-03-19T03:12:20;99856.72;;;12.41;36.65
38880;BME280;25887;30.194;-97.880;2023-03-19T03:14:46;99863.59;;;12.40;36.76
38880;BME280;25887;30.194;-97.880;2023-03-19T03:17:13;99860.94;;;12.36;36.82
38880;BME280;25887;30.194;-97.880;2023-03-19T03:19:40;99867.78;;;12.34;37.00
38880;BME280;25887;30.194;-97.880;2023-03-19T03:22:06;99861.66;;;12.28;36.93
38880;BME280;25887;30.194;-97.880;2023-03-19T03:24:33;99866.81;;;12.27;36.95
38880;BME280;25887;30.194;-97.880;2023-03-19T03:26:59;99863.31;;;12.23;36.95
38880;BME280;25887;30.194;-97.880;2023-03-19T03:29:25;99864.06;;;12.18;37.04
38880;BME280;25887;30.194;-97.880;2023-03-19T03:31:51;99875.16;;;12.14;36.99
38880;BME280;25887;30.194;-97.880;2023-03-19T03:34:18;99873.41;;;12.11;37.11
38880;BME280;25887;30.194;-97.880;2023-03-19T03:36:44;99875.91;;;12.07;37.06
38880;BME280;25887;30.194;-97.880;2023-03-19T03:39:13;99885.28;;;12.05;37.22
38880;BME280;25887;30.194;-97.880;2023-03-19T03:41:39;99881.75;;;11.98;37.38
38880;BME280;25887;30.194;-97.880;2023-03-19T03:44:06;99881.69;;;11.95;37.40
38880;BME280;25887;30.194;-97.880;2023-03-19T03:46:33;99900.56;;;11.94;37.34
38880;BME280;25887;30.194;-97.880;2023-03-19T03:49:00;99892.75;;;11.89;37.56
38880;BME280;25887;30.194;-97.880;2023-03-19T03:51:27;99905.63;;;11.89;37.52
38880;BME280;25887;30.194;-97.880;2023-03-19T03:54:06;99909.06;;;11.90;37.45
38880;BME280;25887;30.194;-97.880;2023-03-19T03:56:34;99904.69;;;11.84;37.62
38880;BME280;25887;30.194;-97.880;2023-03-19T03:59:02;99909.84;;;11.86;37.75
38880;BME280;25887;30.194;-97.880;2023-03-19T04:01:28;99915.78;;;11.82;37.87
38880;BME280;25887;30.194;-97.880;2023-03-19T04:03:55;99915.75;;;11.80;37.87
38880;BME280;25887;30.194;-97.880;2023-03-19T04:06:22;99924.25;;;11.78;37.67
38880;BME280;25887;30.194;-97.880;2023-03-19T04:08:50;99926.75;;;11.75;37.73
38880;BME280;25887;30.194;-97.880;2023-03-19T04:11:17;99925.84;;;11.72;38.20
38880;BME280;25887;30.194;-97.880;2023-03-19T04:13:43;99931.81;;;11.70;38.01
38880;BME280;25887;30.194;-97.880;2023-03-19T04:16:10;99925.72;;;11.66;37.90
38880;BME280;25887;30.194;-97.880;2023-03-19T04:18:37;99917.97;;;11.65;38.08
38880;BME280;25887;30.194;-97.880;2023-03-19T04:21:04;99922.22;;;11.61;37.99
38880;BME280;25887;30.194;-97.880;2023-03-19T04:23:31;99926.44;;;11.59;38.35
38880;BME280;25887;30.194;-97.880;2023-03-19T04:26:02;99935.78;;;11.54;38.13
38880;BME280;25887;30.194;-97.880;2023-03-19T04:28:29;99933.09;;;11.50;38.24
38880;BME280;25887;30.194;-97.880;2023-03-19T04:31:06;99928.81;;;11.50;38.43
38880;BME280;25887;30.194;-97.880;2023-03-19T04:33:33;99927.00;;;11.44;38.39
38880;BME280;25887;30.194;-97.880;2023-03-19T04:36:00;99926.91;;;11.40;38.50
38880;BME280;25887;30.194;-97.880;2023-03-19T04:38:28;99926.75;;;11.34;38.60
38880;BME280;25887;30.194;-97.880;2023-03-19T04:40:54;99927.63;;;11.34;38.45
38880;BME280;25887;30.194;-97.880;2023-03-19T04:43:22;99931.00;;;11.30;38.48
38880;BME280;25887;30.194;-97.880;2023-03-19T04:45:48;99930.13;;;11.30;38.57
38880;BME280;25887;30.194;-97.880;2023-03-19T04:48:15;99940.41;;;11.30;38.65
38880;BME280;25887;30.194;-97.880;2023-03-19T04:50:43;99938.63;;;11.27;38.65
38880;BME280;25887;30.194;-97.880;2023-03-19T04:53:12;99946.31;;;11.26;38.88
38880;BME280;25887;30.194;-97.880;2023-03-19T04:55:38;99950.56;;;11.24;39.11
38880;BME280;25887;30.194;-97.880;2023-03-19T04:58:04;99937.63;;;11.21;38.83
38880;BME280;25887;30.194;-97.880;2023-03-19T05:00:31;99945.25;;;11.18;38.95
38880;BME280;25887;30.194;-97.880;2023-03-19T05:02:57;99939.22;;;11.15;39.01
38880;BME280;25887;30.194;-97.880;2023-03-19T05:05:24;99933.13;;;11.12;38.92
38880;BME280;25887;30.194;-97.880;2023-03-19T05:07:50;99932.25;;;11.11;39.14
38880;BME280;25887;30.194;-97.880;2023-03-19T05:10:16;99936.47;;;11.08;39.24
38880;BME280;25887;30.194;-97.880;2023-03-19T05:12:43;99945.06;;;11.08;39.12
38880;BME280;25887;30.194;-97.880;2023-03-19T05:15:09;99943.31;;;11.06;39.30
38880;BME280;25887;30.194;-97.880;2023-03-19T05:17:36;99947.56;;;11.05;39.51
38880;BME280;25887;30.194;-97.880;2023-03-19T05:20:02;99951.78;;;11.03;39.22
38880;BME280;25887;30.194;-97.880;2023-03-19T05:22:32;99959.47;;;11.02;39.61
38880;BME280;25887;30.194;-97.880;2023-03-19T05:24:58;99955.88;;;10.95;39.23
38880;BME280;25887;30.194;-97.880;2023-03-19T05:27:25;99949.84;;;10.93;39.80
38880;BME280;25887;30.194;-97.880;2023-03-19T05:29:52;99956.72;;;10.94;39.53
38880;BME280;25887;30.194;-97.880;2023-03-19T05:32:18;99959.28;;;10.94;39.75
38880;BME280;25887;30.194;-97.880;2023-03-19T05:34:45;99957.59;;;10.95;39.85
38880;BME280;25887;30.194;-97.880;2023-03-19T05:37:12;99962.72;;;10.95;39.56
38880;BME280;25887;30.194;-97.880;2023-03-19T05:39:38;99960.19;;;10.96;39.96
38880;BME280;25887;30.194;-97.880;2023-03-19T05:42:06;99965.34;;;10.96;39.58
38880;BME280;25887;30.194;-97.880;2023-03-19T05:44:33;99965.34;;;10.96;40.07
38880;BME280;25887;30.194;-97.880;2023-03-19T05:46:59;99961.06;;;10.97;40.02
38880;BME280;25887;30.194;-97.880;2023-03-19T05:49:27;99955.91;;;10.97;40.00
38880;BME280;25887;30.194;-97.880;2023-03-19T05:51:53;99958.47;;;10.95;39.95
38880;BME280;25887;30.194;-97.880;2023-03-19T05:54:19;99948.16;;;10.94;40.15
38880;BME280;25887;30.194;-97.880;2023-03-19T05:56:47;99954.09;;;10.91;40.14
38880;BME280;25887;30.194;-97.880;2023-03-19T05:59:13;99954.84;;;10.87;39.94
38880;BME280;25887;30.194;-97.880;2023-03-19T06:01:40;99968.53;;;10.86;39.88
38880;BME280;25887;30.194;-97.880;2023-03-19T06:04:06;99975.34;;;10.84;40.11
38880;BME280;25887;30.194;-97.880;2023-03-19T06:06:35;99975.34;;;10.84;40.45
38880;BME280;25887;30.194;-97.880;2023-03-19T06:09:02;99975.25;;;10.81;40.13
38880;BME280;25887;30.194;-97.880;2023-03-19T06:11:28;99976.09;;;10.80;40.17
38880;BME280;25887;30.194;-97.880;2023-03-19T06:13:55;99978.66;;;10.80;40.31
38880;BME280;25887;30.194;-97.880;2023-03-19T06:16:22;99976.03;;;10.77;40.61
38880;BME280;25887;30.194;-97.880;2023-03-19T06:18:49;99973.34;;;10.74;40.59
38880;BME280;25887;30.194;-97.880;2023-03-19T06:21:16;99975.94;;;10.74;40.66
38880;BME280;25887;30.194;-97.880;2023-03-19T06:23:42;99969.88;;;10.72;40.66
38880;BME280;25887;30.194;-97.880;2023-03-19T06:26:08;99968.19;;;10.72;40.58
38880;BME280;25887;30.194;-97.880;2023-03-19T06:28:35;99964.75;;;10.72;41.01
38880;BME280;25887;30.194;-97.880;2023-03-19T06:31:01;99960.38;;;10.68;40.79
38880;BME280;25887;30.194;-97.880;2023-03-19T06:33:27;99973.22;;;10.68;40.95
38880;BME280;25887;30.194;-97.880;2023-03-19T06:35:57;99976.63;;;10.67;40.77
38880;BME280;25887;30.194;-97.880;2023-03-19T06:38:23;99969.69;;;10.64;41.00
38880;BME280;25887;30.194;-97.880;2023-03-19T06:40:50;99967.06;;;10.61;41.02
38880;BME280;25887;30.194;-97.880;2023-03-19T06:43:16;99977.38;;;10.63;40.89
38880;BME280;25887;30.194;-97.880;2023-03-19T06:45:42;99975.63;;;10.62;41.09
38880;BME280;25887;30.194;-97.880;2023-03-19T06:48:09;99966.94;;;10.56;40.93
38880;BME280;25887;30.194;-97.880;2023-03-19T06:50:35;99982.34;;;10.56;41.32
38880;BME280;25887;30.194;-97.880;2023-03-19T06:53:01;99986.66;;;10.57;41.41
38880;BME280;25887;30.194;-97.880;2023-03-19T06:55:27;99977.19;;;10.55;41.34
38880;BME280;25887;30.194;-97.880;2023-03-19T06:57:55;99978.84;;;10.53;41.39
38880;BME280;25887;30.194;-97.880;2023-03-19T07:00:23;99976.28;;;10.53;41.59
38880;BME280;25887;30.194;-97.880;2023-03-19T07:02:49;99971.09;;;10.51;41.55
38880;BME280;25887;30.194;-97.880;2023-03-19T07:05:16;99978.84;;;10.53;41.47
38880;BME280;25887;30.194;-97.880;2023-03-19T07:07:42;99980.59;;;10.54;41.41
38880;BME280;25887;30.194;-97.880;2023-03-19T07:10:09;99983.13;;;10.52;41.52
38880;BME280;25887;30.194;-97.880;2023-03-19T07:12:35;99988.25;;;10.52;41.68
38880;BME280;25887;30.194;-97.880;2023-03-19T07:15:01;99983.94;;;10.51;41.54
38880;BME280;25887;30.194;-97.880;2023-03-19T07:17:29;99986.53;;;10.51;41.49
38880;BME280;25887;30.194;-97.880;2023-03-19T07:19:55;99981.31;;;10.50;41.71
38880;BME280;25887;30.194;-97.880;2023-03-19T07:22:21;99980.44;;;10.49;41.45
38880;BME280;25887;30.194;-97.880;2023-03-19T07:24:48;99979.53;;;10.47;41.80
38880;BME280;25887;30.194;-97.880;2023-03-19T07:27:14;99982.97;;;10.48;41.64
38880;BME280;25887;30.194;-97.880;2023-03-19T07:29:41;99976.94;;;10.46;41.73
38880;BME280;25887;30.194;-97.880;2023-03-19T07:32:09;99979.47;;;10.44;41.55
38880;BME280;25887;30.194;-97.880;2023-03-19T07:34:35;99972.50;;;10.40;41.68
38880;BME280;25887;30.194;-97.880;2023-03-19T07:37:01;99963.06;;;10.39;41.39
38880;BME280;25887;30.194;-97.880;2023-03-19T07:39:28;99974.19;;;10.38;41.48
38880;BME280;25887;30.194;-97.880;2023-03-19T07:41:54;99968.13;;;10.36;41.89
38880;BME280;25887;30.194;-97.880;2023-03-19T07:44:20;99960.34;;;10.35;41.54
38880;BME280;25887;30.194;-97.880;2023-03-19T07:46:46;99962.06;;;10.34;41.94
38880;BME280;25887;30.194;-97.880;2023-03-19T07:49:12;99962.91;;;10.33;41.81
38880;BME280;25887;30.194;-97.880;2023-03-19T07:51:39;99965.41;;;10.30;42.09
38880;BME280;25887;30.194;-97.880;2023-03-19T07:54:05;99962.81;;;10.30;41.98
38880;BME280;25887;30.194;-97.880;2023-03-19T07:56:31;99960.22;;;10.28;42.03
38880;BME280;25887;30.194;-97.880;2023-03-19T07:58:57;99958.53;;;10.29;42.31
38880;BME280;25887;30.194;-97.880;2023-03-19T08:01:24;99955.91;;;10.27;42.30
38880;BME280;25887;30.194;-97.880;2023-03-19T08:03:51;99958.44;;;10.26;42.39
38880;BME280;25887;30.194;-97.880;2023-03-19T08:06:17;99956.66;;;10.23;42.28
38880;BME280;25887;30.194;-97.880;2023-03-19T08:08:43;99950.59;;;10.21;41.80
38880;BME280;25887;30.194;-97.880;2023-03-19T08:11:09;99955.72;;;10.21;42.23
38880;BME280;25887;30.194;-97.880;2023-03-19T08:13:36;99952.28;;;10.21;41.91
38880;BME280;25887;30.194;-97.880;2023-03-19T08:16:02;99959.13;;;10.20;41.75
38880;BME280;25887;30.194;-97.880;2023-03-19T08:18:28;99958.19;;;10.18;42.23
38880;BME280;25887;30.194;-97.880;2023-03-19T08:20:54;99955.63;;;10.18;42.38
38880;BME280;25887;30.194;-97.880;2023-03-19T08:23:21;99962.41;;;10.16;42.28
38880;BME280;25887;30.194;-97.880;2023-03-19T08:25:47;99968.44;;;10.17;42.14
38880;BME280;25887;30.194;-97.880;2023-03-19T08:28:16;99967.56;;;10.16;42.31
38880;BME280;25887;30.194;-97.880;2023-03-19T08:30:42;99974.47;;;10.19;42.17
38880;BME280;25887;30.194;-97.880;2023-03-19T08:33:08;99988.19;;;10.19;42.52
38880;BME280;25887;30.194;-97.880;2023-03-19T08:35:34;99981.41;;;10.21;42.22
38880;BME280;25887;30.194;-97.880;2023-03-19T08:38:01;99979.69;;;10.22;42.17
38880;BME280;25887;30.194;-97.880;2023-03-19T08:40:27;99987.50;;;10.25;42.65
38880;BME280;25887;30.194;-97.880;2023-03-19T08:42:54;99978.13;;;10.27;42.47
38880;BME280;25887;30.194;-97.880;2023-03-19T08:45:21;99962.78;;;10.28;42.21
38880;BME280;25887;30.194;-97.880;2023-03-19T08:48:20;99966.34;;;10.33;42.31
38880;BME280;25887;30.194;-97.880;2023-03-19T08:50:58;99963.72;;;10.32;42.19
38880;BME280;25887;30.194;-97.880;2023-03-19T08:53:24;99963.72;;;10.32;41.96
38880;BME280;25887;30.194;-97.880;2023-03-19T08:55:52;99973.16;;;10.33;42.23
38880;BME280;25887;30.194;-97.880;2023-03-19T08:58:19;99972.25;;;10.29;42.36
38880;BME280;25887;30.194;-97.880;2023-03-19T09:00:46;99972.09;;;10.25;42.14
38880;BME280;25887;30.194;-97.880;2023-03-19T09:03:12;99978.94;;;10.24;42.02
38880;BME280;25887;30.194;-97.880;2023-03-19T09:05:38;99982.38;;;10.25;42.52
38880;BME280;25887;30.194;-97.880;2023-03-19T09:08:08;99979.91;;;10.28;42.84
38880;BME280;25887;30.194;-97.880;2023-03-19T09:10:35;99980.81;;;10.30;42.73
38880;BME280;25887;30.194;-97.880;2023-03-19T09:13:03;99977.41;;;10.31;42.39
38880;BME280;25887;30.194;-97.880;2023-03-19T09:15:29;99982.53;;;10.31;42.61
38880;BME280;25887;30.194;-97.880;2023-03-19T09:17:55;99996.25;;;10.31;42.24
38880;BME280;25887;30.194;-97.880;2023-03-19T09:20:22;99991.16;;;10.33;42.30
38880;BME280;25887;30.194;-97.880;2023-03-19T09:22:48;99996.28;;;10.33;42.62
38880;BME280;25887;30.194;-97.880;2023-03-19T09:25:15;99981.75;;;10.33;42.59
38880;BME280;25887;30.194;-97.880;2023-03-19T09:27:41;99986.03;;;10.33;42.44
38880;BME280;25887;30.194;-97.880;2023-03-19T09:30:07;99977.41;;;10.31;42.22
38880;BME280;25887;30.194;-97.880;2023-03-19T09:32:37;99980.00;;;10.32;42.77
38880;BME280;25887;30.194;-97.880;2023-03-19T09:35:03;99981.72;;;10.32;42.39
38880;BME280;25887;30.194;-97.880;2023-03-19T09:37:30;99980.88;;;10.33;42.39
38880;BME280;25887;30.194;-97.880;2023-03-19T09:39:56;99973.16;;;10.33;42.73
38880;BME280;25887;30.194;-97.880;2023-03-19T09:45:16;99958.69;;;10.35;42.47
38880;BME280;25887;30.194;-97.880;2023-03-19T09:47:44;99954.34;;;10.34;42.36
38880;BME280;25887;30.194;-97.880;2023-03-19T09:50:17;99945.78;;;10.33;42.73
38880;BME280;25887;30.194;-97.880;2023-03-19T09:53:34;99950.09;;;10.35;42.78
38880;BME280;25887;30.194;-97.880;2023-03-19T09:55:47;99947.50;;;10.35;42.32
38880;BME280;25887;30.194;-97.880;2023-03-19T09:58:24;99943.16;;;10.30;42.81
38880;BME280;25887;30.194;-97.880;2023-03-19T10:00:53;99947.41;;;10.30;42.58
38880;BME280;25887;30.194;-97.880;2023-03-19T10:06:17;99959.41;;;10.29;42.92
38880;BME280;25887;30.194;-97.880;2023-03-19T10:11:43;99975.56;;;10.27;42.81
38880;BME280;25887;30.194;-97.880;2023-03-19T10:16:50;99971.13;;;10.21;42.84
38880;BME280;25887;30.194;-97.880;2023-03-19T10:19:23;99963.31;;;10.18;42.97
38880;BME280;25887;30.194;-97.880;2023-03-19T10:22:02;99970.13;;;10.16;42.90
38880;BME280;25887;30.194;-97.880;2023-03-19T10:24:36;99976.97;;;10.16;42.50
38880;BME280;25887;30.194;-97.880;2023-03-19T10:27:13;99971.75;;;10.13;42.70
38880;BME280;25887;30.194;-97.880;2023-03-19T10:29:39;99975.91;;;10.09;42.97
38880;BME280;25887;30.194;-97.880;2023-03-19T10:34:53;99977.50;;;10.04;42.90
38880;BME280;25887;30.194;-97.880;2023-03-19T10:37:21;99978.28;;;10.01;43.16
38880;BME280;25887;30.194;-97.880;2023-03-19T10:39:50;99983.38;;;10.00;42.83
38880;BME280;25887;30.194;-97.880;2023-03-19T10:42:30;99984.22;;;9.99;42.93
38880;BME280;25887;30.194;-97.880;2023-03-19T10:45:26;99991.94;;;10.00;42.94
38880;BME280;25887;30.194;-97.880;2023-03-19T10:47:54;99993.47;;;9.94;43.25
38880;BME280;25887;30.194;-97.880;2023-03-19T10:53:05;100008.81;;;9.92;42.87
38880;BME280;25887;30.194;-97.880;2023-03-19T10:55:33;100006.13;;;9.88;43.37
38880;BME280;25887;30.194;-97.880;2023-03-19T10:58:05;99994.13;;;9.87;43.53
38880;BME280;25887;30.194;-97.880;2023-03-19T11:00:32;99996.59;;;9.84;43.25
38880;BME280;25887;30.194;-97.880;2023-03-19T11:03:00;100003.41;;;9.82;43.58
38880;BME280;25887;30.194;-97.880;2023-03-19T11:05:33;100012.81;;;9.81;43.69
38880;BME280;25887;30.194;-97.880;2023-03-19T11:08:04;100008.47;;;9.80;43.08
38880;BME280;25887;30.194;-97.880;2023-03-19T11:10:35;100008.34;;;9.75;43.55
38880;BME280;25887;30.194;-97.880;2023-03-19T11:13:11;100023.75;;;9.75;43.77
38880;BME280;25887;30.194;-97.880;2023-03-19T11:15:41;100033.97;;;9.74;43.60
38880;BME280;25887;30.194;-97.880;2023-03-19T11:18:17;100024.53;;;9.73;43.25
38880;BME280;25887;30.194;-97.880;2023-03-19T11:26:43;100024.31;;;9.65;43.42
38880;BME280;25887;30.194;-97.880;2023-03-19T11:29:19;100018.97;;;9.59;43.50
38880;BME280;25887;30.194;-97.880;2023-03-19T11:31:53;100031.84;;;9.61;43.54
38880;BME280;25887;30.194;-97.880;2023-03-19T11:34:34;100034.34;;;9.58;43.47
38880;BME280;25887;30.194;-97.880;2023-03-19T11:55:38;100097.00;;;9.39;43.73
38880;BME280;25887;30.194;-97.880;2023-03-19T12:22:23;100108.16;;;9.14;44.53
38880;BME280;25887;30.194;-97.880;2023-03-19T12:27:31;100110.50;;;9.08;44.66
38880;BME280;25887;30.194;-97.880;2023-03-19T12:35:35;100126.56;;;9.02;44.65
38880;BME280;25887;30.194;-97.880;2023-03-19T12:44:18;100152.25;;;9.04;44.47
38880;BME280;25887;30.194;-97.880;2023-03-19T12:47:09;100147.13;;;9.04;44.95
38880;BME280;25887;30.194;-97.880;2023-03-19T12:52:39;100158.31;;;9.06;44.30
38880;BME280;25887;30.194;-97.880;2023-03-19T12:55:21;100172.00;;;9.06;44.75
38880;BME280;25887;30.194;-97.880;2023-03-19T12:58:00;100164.22;;;9.03;44.57
38880;BME280;25887;30.194;-97.880;2023-03-19T13:00:39;100168.47;;;9.03;44.82
38880;BME280;25887;30.194;-97.880;2023-03-19T13:03:20;100160.66;;;9.00;44.36
38880;BME280;25887;30.194;-97.880;2023-03-19T13:06:15;100170.94;;;9.01;44.60
38880;BME280;25887;30.194;-97.880;2023-03-19T13:09:04;100182.09;;;9.02;44.73
38880;BME280;25887;30.194;-97.880;2023-03-19T13:11:54;100186.28;;;9.00;44.25
38880;BME280;25887;30.194;-97.880;2023-03-19T13:14:37;100185.47;;;9.01;45.02
38880;BME280;25887;30.194;-97.880;2023-03-19T13:19:45;100196.66;;;9.03;45.06
38880;BME280;25887;30.194;-97.880;2023-03-19T13:22:16;100204.41;;;9.04;45.07
38880;BME280;25887;30.194;-97.880;2023-03-19T13:24:46;100203.63;;;9.07;44.60
38880;BME280;25887;30.194;-97.880;2023-03-19T13:27:34;100200.50;;;9.15;44.62
38880;BME280;25887;30.194;-97.880;2023-03-19T13:30:15;100191.13;;;9.16;44.53
38880;BME280;25887;30.194;-97.880;2023-03-19T13:35:22;100208.53;;;9.25;45.44
38880;BME280;25887;30.194;-97.880;2023-03-19T13:38:07;100204.25;;;9.25;45.07
38880;BME280;25887;30.194;-97.880;2023-03-19T13:40:38;100206.94;;;9.28;44.72
38880;BME280;25887;30.194;-97.880;2023-03-19T13:45:52;100212.34;;;9.36;45.15
38880;BME280;25887;30.194;-97.880;2023-03-19T13:51:22;100217.75;;;9.43;44.56
38880;BME280;25887;30.194;-97.880;2023-03-19T13:59:37;100220.00;;;9.60;45.30
38880;BME280;25887;30.194;-97.880;2023-03-19T14:07:52;100230.47;;;9.93;45.35
38880;BME280;25887;30.194;-97.880;2023-03-19T14:10:25;100235.88;;;10.00;45.31
38880;BME280;25887;30.194;-97.880;2023-03-19T14:16:37;100242.16;;;10.10;45.24
38880;BME280;25887;30.194;-97.880;2023-03-19T14:19:14;100246.59;;;10.14;44.96
38880;BME280;25887;30.194;-97.880;2023-03-19T14:22:01;100249.50;;;10.25;45.09
38880;BME280;25887;30.194;-97.880;2023-03-19T14:27:19;100256.69;;;10.35;44.60
38880;BME280;25887;30.194;-97.880;2023-03-19T14:29:48;100261.00;;;10.36;44.60
38880;BME280;25887;30.194;-97.880;2023-03-19T14:32:18;100267.94;;;10.39;44.70
38880;BME280;25887;30.194;-97.880;2023-03-19T14:34:47;100274.97;;;10.44;44.42
38880;BME280;25887;30.194;-97.880;2023-03-19T14:39:45;100283.84;;;10.55;44.20
38880;BME280;25887;30.194;-97.880;2023-03-19T14:47:54;100290.38;;;10.73;43.68
38880;BME280;25887;30.194;-97.880;2023-03-19T14:50:37;100296.47;;;10.75;43.16